createdAt,value
2023-05-22T00:00:40.192Z,19.70
2023-05-22T00:06:45.990Z,19.80
2023-05-22T00:12:49.763Z,19.80
2023-05-22T00:18:58.694Z,19.80
2023-05-22T00:25:04.122Z,19.70
2023-05-22T00:31:08.027Z,19.60
2023-05-22T00:37:12.509Z,19.50
2023-05-22T00:43:18.524Z,18.90
2023-05-22T00:49:22.585Z,18.70
2023-05-22T00:55:25.284Z,18.80
2023-05-22T01:01:34.468Z,18.30
2023-05-22T01:07:38.617Z,18.20
2023-05-22T01:13:52.993Z,18.40
2023-05-22T01:20:14.532Z,18.50
2023-05-22T01:26:54.852Z,18.40
2023-05-22T01:33:02.797Z,18.30
2023-05-22T01:39:08.727Z,18.30
2023-05-22T01:45:13.480Z,18.30
2023-05-22T01:51:39.997Z,18.40
2023-05-22T01:57:58.504Z,18.40
2023-05-22T02:04:04.848Z,18.20
2023-05-22T02:10:11.938Z,18.10
2023-05-22T02:16:15.801Z,18.20
2023-05-22T02:22:19.664Z,18.30
2023-05-22T02:28:23.561Z,18.20
2023-05-22T02:34:27.712Z,18.10
2023-05-22T02:40:40.009Z,17.90
2023-05-22T02:46:43.714Z,17.90
2023-05-22T02:52:46.333Z,17.80
2023-05-22T02:58:49.669Z,17.80
2023-05-22T03:04:52.895Z,17.80
2023-05-22T03:10:57.403Z,17.50
2023-05-22T03:17:00.876Z,17.30
2023-05-22T03:23:11.554Z,17.40
2023-05-22T03:29:20.998Z,17.50
2023-05-22T03:35:30.172Z,17.40
2023-05-22T03:41:33.791Z,17.60
2023-05-22T03:47:37.541Z,17.60
2023-05-22T03:53:41.889Z,17.70
2023-05-22T03:59:45.787Z,17.70
2023-05-22T04:05:52.125Z,17.80
2023-05-22T04:11:59.104Z,17.90
2023-05-22T04:18:02.335Z,17.80
2023-05-22T04:24:09.626Z,17.80
2023-05-22T04:30:18.358Z,17.50
2023-05-22T04:36:27.444Z,17.30
2023-05-22T04:42:32.006Z,17.20
2023-05-22T04:48:39.880Z,17.30
2023-05-22T04:54:47.586Z,17.40
2023-05-22T05:00:55.120Z,17.60
2023-05-22T05:07:06.432Z,18.00
2023-05-22T05:13:13.858Z,17.80
2023-05-22T05:19:18.514Z,17.90
2023-05-22T05:25:22.126Z,17.90
2023-05-22T05:31:26.444Z,18.10
2023-05-22T05:37:29.961Z,18.20
2023-05-22T05:43:33.775Z,18.50
2023-05-22T05:49:41.676Z,18.40
2023-05-22T05:55:52.295Z,18.00
2023-05-22T06:02:01.270Z,18.00
2023-05-22T06:08:12.489Z,18.20
2023-05-22T06:14:21.709Z,18.20
2023-05-22T06:20:40.442Z,18.30
2023-05-22T06:26:49.250Z,18.40
2023-05-22T06:32:59.135Z,18.50
2023-05-22T06:39:11.242Z,18.70
2023-05-22T06:45:23.677Z,18.80
2023-05-22T06:51:32.737Z,19.00
2023-05-22T06:57:41.184Z,19.10
2023-05-22T07:03:51.040Z,19.10
2023-05-22T07:09:58.816Z,19.00
2023-05-22T07:16:09.496Z,19.20
2023-05-22T07:22:29.635Z,19.40
2023-05-22T07:28:34.306Z,19.90
2023-05-22T07:34:40.457Z,20.50
2023-05-22T07:40:46.044Z,20.90
2023-05-22T07:46:50.417Z,20.80
2023-05-22T07:52:54.458Z,20.70
2023-05-22T07:58:58.309Z,21.00
2023-05-22T08:05:02.530Z,21.00
2023-05-22T08:11:06.662Z,20.90
2023-05-22T08:17:12.225Z,20.70
2023-05-22T08:23:16.019Z,21.10
2023-05-22T08:29:21.033Z,21.30
2023-05-22T08:35:24.465Z,21.40
2023-05-22T08:41:28.199Z,21.80
2023-05-22T08:47:34.090Z,22.10
2023-05-22T08:53:41.980Z,22.00
2023-05-22T08:59:46.435Z,21.70
2023-05-22T09:05:51.038Z,21.50
2023-05-22T09:11:56.186Z,21.70
2023-05-22T09:18:00.921Z,21.70
2023-05-22T09:24:03.869Z,22.00
2023-05-22T09:30:11.297Z,21.90
2023-05-22T09:36:17.143Z,22.60
2023-05-22T09:42:37.698Z,23.30
2023-05-22T09:48:41.532Z,23.40
2023-05-22T09:54:57.124Z,23.80
2023-05-22T10:01:02.905Z,23.80
2023-05-22T10:07:06.957Z,23.50
2023-05-22T10:13:17.949Z,24.30
2023-05-22T10:19:22.839Z,24.40
2023-05-22T10:25:26.676Z,24.60
2023-05-22T10:32:24.673Z,24.70
2023-05-22T10:38:50.875Z,25.00
2023-05-22T10:44:54.665Z,25.40
2023-05-22T10:50:59.808Z,25.70
2023-05-22T10:57:17.910Z,25.80
2023-05-22T11:03:24.077Z,25.80
2023-05-22T11:09:47.732Z,25.50
2023-05-22T11:15:51.692Z,26.10
2023-05-22T11:22:08.903Z,26.60
2023-05-22T11:28:13.608Z,26.90
2023-05-22T11:34:17.698Z,26.20
2023-05-22T11:40:25.895Z,25.20
2023-05-22T11:46:31.292Z,25.60
2023-05-22T11:52:37.826Z,25.90
2023-05-22T11:58:41.864Z,25.60
2023-05-22T12:04:45.708Z,25.80
2023-05-22T12:10:55.133Z,26.10
2023-05-22T12:17:07.325Z,25.80
2023-05-22T12:23:27.269Z,26.10
2023-05-22T12:29:31.131Z,25.80
2023-05-22T12:35:35.144Z,25.90
2023-05-22T12:41:39.234Z,25.80
2023-05-22T12:47:43.259Z,25.90
2023-05-22T12:53:46.521Z,26.40
2023-05-22T12:59:49.561Z,26.70
2023-05-22T13:05:52.285Z,26.40
2023-05-22T13:11:55.773Z,25.80
2023-05-22T13:17:59.528Z,25.90
2023-05-22T13:24:02.225Z,26.80
2023-05-22T13:30:05.254Z,27.20
2023-05-22T13:36:08.543Z,27.00
2023-05-22T13:42:12.598Z,27.20
2023-05-22T13:48:16.615Z,27.00
2023-05-22T13:54:20.692Z,27.10
2023-05-22T14:00:26.449Z,26.40
2023-05-22T14:06:33.282Z,26.10
2023-05-22T14:12:36.760Z,25.70
2023-05-22T14:18:40.277Z,25.70
2023-05-22T14:24:45.650Z,25.30
2023-05-22T14:30:53.139Z,24.10
2023-05-22T14:36:58.870Z,23.50
2023-05-22T14:43:02.003Z,23.10
2023-05-22T14:49:05.193Z,22.80
2023-05-22T14:55:08.209Z,22.60
2023-05-22T15:01:11.348Z,22.40
2023-05-22T15:07:14.542Z,22.30
2023-05-22T15:13:17.236Z,21.50
2023-05-22T15:19:20.112Z,21.00
2023-05-22T15:25:22.669Z,20.60
2023-05-22T15:31:31.145Z,20.30
2023-05-22T15:37:37.322Z,18.80
2023-05-22T15:43:41.450Z,18.00
2023-05-22T15:49:44.055Z,17.90
2023-05-22T15:55:49.070Z,18.00
2023-05-22T16:01:54.224Z,18.10
2023-05-22T16:07:57.519Z,17.80
2023-05-22T16:14:01.458Z,18.10
2023-05-22T16:20:06.019Z,17.90
2023-05-22T16:26:10.043Z,17.60
2023-05-22T16:32:13.478Z,17.70
2023-05-22T16:38:17.117Z,17.90
2023-05-22T16:44:23.011Z,18.40
2023-05-22T16:50:26.236Z,18.40
2023-05-22T16:56:29.853Z,18.10
2023-05-22T17:19:29.197Z,17.60
2023-05-22T17:25:32.806Z,17.30
2023-05-22T17:31:41.949Z,17.20
2023-05-22T17:37:44.403Z,17.50
2023-05-22T17:43:46.401Z,17.50
2023-05-22T17:49:48.825Z,17.50
2023-05-22T17:55:54.421Z,17.40
2023-05-22T18:02:03.300Z,17.20
2023-05-22T18:08:06.634Z,17.30
2023-05-22T18:14:08.757Z,17.50
2023-05-22T18:20:17.279Z,17.50
2023-05-22T18:26:19.694Z,17.10
2023-05-22T18:32:24.932Z,17.00
2023-05-22T18:38:27.857Z,17.10
2023-05-22T18:44:30.332Z,16.60
2023-05-22T18:50:32.446Z,16.60
2023-05-22T18:56:34.593Z,16.70
2023-05-22T19:02:39.099Z,17.00
2023-05-22T19:08:41.093Z,17.00
2023-05-22T19:14:42.989Z,16.90
2023-05-22T19:20:45.088Z,16.80
2023-05-22T19:26:47.232Z,16.50
2023-05-22T19:32:56.097Z,16.60
2023-05-22T19:38:58.120Z,16.60
2023-05-22T19:45:00.073Z,16.60
2023-05-22T19:51:03.993Z,16.70
2023-05-22T19:57:06.223Z,16.70
2023-05-22T20:03:08.423Z,16.60
2023-05-22T20:09:11.056Z,16.50
2023-05-22T20:15:14.996Z,16.80
2023-05-22T20:21:17.815Z,16.90
2023-05-22T20:27:20.099Z,16.80
2023-05-22T20:33:22.000Z,16.70
2023-05-22T20:39:24.087Z,16.70
2023-05-22T20:45:26.557Z,16.60
2023-05-22T20:51:32.716Z,16.70
2023-05-22T20:57:35.048Z,16.60
2023-05-22T21:03:37.635Z,16.50
2023-05-22T21:09:39.651Z,16.50
2023-05-22T21:15:41.601Z,16.40
2023-05-22T21:21:43.713Z,16.40
2023-05-22T21:27:48.374Z,16.40
2023-05-22T21:33:50.432Z,16.30
2023-05-22T21:39:52.352Z,16.40
2023-05-22T21:45:54.784Z,16.40
2023-05-22T21:51:56.787Z,16.40
2023-05-22T21:57:58.744Z,16.30
2023-05-22T22:04:00.748Z,16.30
2023-05-22T22:10:02.980Z,16.30
2023-05-22T22:16:05.861Z,16.30
2023-05-22T22:22:07.775Z,16.10
2023-05-22T22:28:09.865Z,16.10
2023-05-22T22:34:11.899Z,16.20
2023-05-22T22:40:15.156Z,15.80
2023-05-22T22:46:17.419Z,15.70
2023-05-22T22:52:20.195Z,15.80
2023-05-22T22:58:22.855Z,15.70
2023-05-22T23:04:25.075Z,15.40
2023-05-22T23:10:27.439Z,15.40
2023-05-22T23:16:29.992Z,15.50
2023-05-22T23:22:32.354Z,15.50
2023-05-22T23:28:34.492Z,15.50
2023-05-22T23:34:36.786Z,15.00
2023-05-22T23:40:42.637Z,15.00
2023-05-22T23:46:44.915Z,15.00
2023-05-22T23:52:48.600Z,14.80
2023-05-22T23:58:51.063Z,14.70
